Current Weather

Worcester Regional Airport

Worcester Regional Airport, Massachusetts (KORH)

Report from: Thursday, May 19, 2022 1:54 PM EDT
Current time: Thursday, May 19, 2022 2:59 PM EDT

Nearby weather
Weather history
Weather forecast

Present weatherLight rain
Temperature11.1°C (52.0°F)
Dew point10.6°C (51.1°F)
Winds 11 kts (5.7 m/s, 12.7 mph) South (170°)
Visibility8 mi. (12.9 km)
Clouds Ceiling: Overcast 400 ft. (122 m)
Altimeter29.72 in.Hg (1006 mB)
Precipitiation0.02 in. (1 mm)
Precip last 3 hours0.10 in. (3 mm)
Relative humidity97 %
Density altitude-53 ft. (-16 m)
Sea-level pressure100.7 kPa (1007 mB, 29.72 in.Hg)
Max temp last 6 hours11.7°C (53.1°F)
Min temp last 6 hours10.0°C (50.0°F)
Remarks Automated weather observing station with precipitation discriminator
Ceiling
Pressure falling more quickly
Flight conditions Low Instrument Meteorological Conditions
Raw dataKORH 191754Z 17011KT 8SM -RA OVC004 11/11 A2972 RMK AO2 CIG 002V008 SLP066 P0002 60010 T01110106 10117 20100 58026
An error has occurred. This application may no longer respond until reloaded. Reload 🗙